Time;durP1;ratioP1;P1;durP2;ratioP2;P2;SDS_P1;SDS_P2;PMS_P1;PMS_P2;Temp;Humidity;BMP_temperature;BMP_pressure;BME280_temperature;BME280_humidity;BME280_pressure;Samples;Min_cycle;Max_cycle;Signal;HPM_P1;HPM_P2
2020/12/12 00:01:02;;;;;;;;;;;21.60;54.90;;;;;;5072730;28;1356;-64
2020/12/12 00:03:28;;;;;;;;;;;21.60;55.00;;;;;;5072929;28;1282;-65
2020/12/12 00:05:53;;;;;;;;;;;21.60;55.00;;;;;;5072649;28;1203;-64
2020/12/12 00:08:19;;;;;;;;;;;21.60;55.00;;;;;;5054953;28;1303;-64
2020/12/12 00:10:45;;;;;;;;;;;21.60;55.00;;;;;;5072546;28;1251;-64
2020/12/12 00:13:11;;;;;;;;;;;21.60;55.00;;;;;;5055320;28;1327;-64
2020/12/12 00:15:36;;;;;;;;;;;21.60;55.10;;;;;;5071824;28;1976;-65
2020/12/12 00:18:02;;;;;;;;;;;21.50;55.10;;;;;;5072578;28;1248;-65
2020/12/12 00:20:28;;;;;;;;;;;21.50;55.10;;;;;;5072549;28;1303;-64
2020/12/12 00:22:54;;;;;;;;;;;21.50;55.20;;;;;;5072809;28;1068;-64
2020/12/12 00:25:19;;;;;;;;;;;21.50;55.20;;;;;;5072096;28;1236;-64
2020/12/12 00:27:45;;;;;;;;;;;21.50;55.20;;;;;;5072410;28;1277;-65
2020/12/12 00:30:11;;;;;;;;;;;21.50;55.20;;;;;;5049304;28;1418;-64
2020/12/12 00:32:36;;;;;;;;;;;21.50;55.30;;;;;;5068230;28;1267;-64
2020/12/12 00:35:02;;;;;;;;;;;21.50;55.30;;;;;;5058084;28;1969;-63
2020/12/12 00:37:27;;;;;;;;;;;21.50;55.30;;;;;;5054323;28;2321;-64
2020/12/12 00:39:53;;;;;;;;;;;21.40;55.30;;;;;;5053381;28;1805;-64
2020/12/12 00:42:18;;;;;;;;;;;21.40;55.30;;;;;;5037676;28;1323;-63
2020/12/12 00:44:44;;;;;;;;;;;21.40;55.40;;;;;;5053839;28;1354;-65
2020/12/12 00:47:09;;;;;;;;;;;21.40;55.40;;;;;;5054291;28;1192;-64
2020/12/12 00:49:35;;;;;;;;;;;21.40;55.50;;;;;;5072689;28;1363;-64
2020/12/12 00:52:00;;;;;;;;;;;21.40;55.50;;;;;;5072116;28;1297;-64
2020/12/12 00:54:26;;;;;;;;;;;21.40;55.50;;;;;;5071342;28;1906;-64
2020/12/12 00:56:52;;;;;;;;;;;21.40;55.50;;;;;;5072037;28;1092;-64
2020/12/12 00:59:18;;;;;;;;;;;21.30;55.50;;;;;;5071665;28;1358;-64
2020/12/12 01:01:47;;;;;;;;;;;21.30;55.50;;;;;;5071923;28;1261;-65
2020/12/12 01:04:13;;;;;;;;;;;21.30;55.50;;;;;;5072104;28;1056;-64
2020/12/12 01:06:38;;;;;;;;;;;21.30;55.50;;;;;;5054035;28;1295;-64
2020/12/12 01:09:03;;;;;;;;;;;21.30;55.60;;;;;;5071505;28;1374;-64
2020/12/12 01:11:29;;;;;;;;;;;21.30;55.60;;;;;;5054044;28;1358;-64
2020/12/12 01:13:54;;;;;;;;;;;21.30;55.60;;;;;;5071273;28;1340;-64
2020/12/12 01:16:20;;;;;;;;;;;21.30;56.20;;;;;;5053408;28;1973;-64
2020/12/12 01:18:45;;;;;;;;;;;21.30;55.70;;;;;;5071810;28;1278;-64
2020/12/12 01:21:14;;;;;;;;;;;21.30;55.70;;;;;;5071843;28;1071;-63
2020/12/12 01:23:39;;;;;;;;;;;21.30;55.70;;;;;;5053987;28;1294;-64
2020/12/12 01:26:05;;;;;;;;;;;21.30;55.80;;;;;;5071000;28;1327;-64
2020/12/12 01:28:30;;;;;;;;;;;21.30;55.70;;;;;;5052358;28;1327;-64
2020/12/12 01:30:55;;;;;;;;;;;21.20;55.70;;;;;;5071693;28;1384;-65
2020/12/12 01:33:21;;;;;;;;;;;21.20;55.80;;;;;;5053775;28;1318;-64
2020/12/12 01:35:47;;;;;;;;;;;21.20;55.80;;;;;;5053655;28;1906;-64
2020/12/12 01:38:12;;;;;;;;;;;21.20;55.80;;;;;;5053129;28;1285;-64
2020/12/12 01:40:38;;;;;;;;;;;21.20;55.80;;;;;;5053338;28;1250;-65
2020/12/12 01:43:03;;;;;;;;;;;21.20;55.80;;;;;;5053017;28;1383;-63
2020/12/12 01:45:29;;;;;;;;;;;21.20;55.80;;;;;;5071462;28;1237;-64
2020/12/12 01:47:54;;;;;;;;;;;21.20;55.80;;;;;;5071175;28;1258;-64
2020/12/12 01:50:20;;;;;;;;;;;21.20;55.90;;;;;;5053542;28;1378;-64
2020/12/12 01:52:50;;;;;;;;;;;21.20;55.90;;;;;;5053524;28;1260;-64
2020/12/12 01:55:16;;;;;;;;;;;21.10;55.90;;;;;;5049601;28;1969;-64
2020/12/12 01:57:41;;;;;;;;;;;21.20;55.90;;;;;;5050447;28;1367;-63
2020/12/12 02:00:07;;;;;;;;;;;21.10;56.50;;;;;;5053330;28;1304;-65
2020/12/12 02:02:32;;;;;;;;;;;21.10;56.00;;;;;;5071541;28;1299;-64
2020/12/12 02:04:58;;;;;;;;;;;21.10;56.00;;;;;;5052796;28;1497;-63
2020/12/12 02:07:23;;;;;;;;;;;21.10;56.00;;;;;;5053238;28;1308;-65
2020/12/12 02:09:49;;;;;;;;;;;21.10;56.00;;;;;;5052896;28;1319;-64
2020/12/12 02:12:15;;;;;;;;;;;21.10;56.00;;;;;;5071497;28;1307;-64
2020/12/12 02:14:40;;;;;;;;;;;21.10;56.00;;;;;;5045673;28;1949;-63
2020/12/12 02:17:06;;;;;;;;;;;21.10;56.10;;;;;;5036077;28;1383;-64
2020/12/12 02:19:32;;;;;;;;;;;21.10;56.10;;;;;;5071172;28;1347;-64
2020/12/12 02:21:58;;;;;;;;;;;21.10;56.10;;;;;;5036546;28;1276;-64
2020/12/12 02:24:23;;;;;;;;;;;21.10;56.10;;;;;;5052569;28;1307;-64
2020/12/12 02:26:49;;;;;;;;;;;21.00;56.10;;;;;;5052552;28;1164;-65
2020/12/12 02:29:14;;;;;;;;;;;21.00;56.00;;;;;;5071285;28;1296;-63
2020/12/12 02:31:40;;;;;;;;;;;21.00;56.00;;;;;;5052654;28;1278;-64
2020/12/12 02:34:06;;;;;;;;;;;21.10;56.10;;;;;;5061535;28;1330;-65
2020/12/12 02:36:38;;;;;;;;;;;21.10;56.00;;;;;;5049753;28;1952;-64
2020/12/12 02:39:04;;;;;;;;;;;21.10;55.90;;;;;;5054134;28;1419;-63
2020/12/12 02:41:30;;;;;;;;;;;21.10;55.90;;;;;;5040138;28;1307;-64
2020/12/12 02:43:55;;;;;;;;;;;21.10;56.50;;;;;;5074265;28;1428;-64
2020/12/12 02:46:21;;;;;;;;;;;21.10;55.90;;;;;;5074217;28;1044;-64
2020/12/12 02:48:48;;;;;;;;;;;21.10;55.80;;;;;;5056244;28;1382;-64
2020/12/12 02:51:15;;;;;;;;;;;21.10;55.80;;;;;;5056712;28;1348;-65
2020/12/12 02:53:42;;;;;;;;;;;21.10;55.80;;;;;;5056344;28;1430;-64
2020/12/12 02:56:07;;;;;;;;;;;21.10;55.80;;;;;;5067182;28;1969;-63
2020/12/12 02:58:33;;;;;;;;;;;21.10;55.80;;;;;;5074632;28;1338;-64
2020/12/12 03:00:58;;;;;;;;;;;21.10;55.90;;;;;;5056524;28;1327;-64
2020/12/12 03:03:23;;;;;;;;;;;21.10;55.80;;;;;;5074265;28;1252;-65
2020/12/12 03:05:49;;;;;;;;;;;21.10;55.80;;;;;;5055642;28;1283;-63
2020/12/12 03:08:14;;;;;;;;;;;21.10;55.90;;;;;;5039447;28;1343;-64
2020/12/12 03:10:40;;;;;;;;;;;21.10;55.90;;;;;;5073840;28;1272;-64
2020/12/12 03:13:05;;;;;;;;;;;21.10;55.90;;;;;;5051464;28;1175;-64
2020/12/12 03:15:31;;;;;;;;;;;21.10;55.90;;;;;;5070844;28;1894;-63
2020/12/12 03:17:56;;;;;;;;;;;21.10;55.90;;;;;;5073532;28;1283;-64
2020/12/12 03:20:23;;;;;;;;;;;21.10;55.90;;;;;;5074165;28;1279;-64
2020/12/12 03:22:48;;;;;;;;;;;21.10;55.90;;;;;;5073869;28;1326;-64
2020/12/12 03:25:15;;;;;;;;;;;21.00;55.90;;;;;;5054774;28;1307;-64
2020/12/12 03:27:40;;;;;;;;;;;21.10;56.00;;;;;;5073624;28;1291;-63
2020/12/12 03:30:06;;;;;;;;;;;21.00;56.00;;;;;;5073839;28;1295;-64
2020/12/12 03:32:31;;;;;;;;;;;21.00;56.00;;;;;;5074045;28;1330;-64
2020/12/12 03:34:57;;;;;;;;;;;21.00;56.00;;;;;;5053847;28;2030;-64
2020/12/12 03:37:22;;;;;;;;;;;21.00;56.00;;;;;;5038646;28;1295;-63
2020/12/12 03:39:48;;;;;;;;;;;21.00;56.00;;;;;;5073019;28;1303;-63
2020/12/12 03:42:13;;;;;;;;;;;21.00;56.00;;;;;;5073457;28;1315;-65
2020/12/12 03:44:39;;;;;;;;;;;21.00;56.10;;;;;;5073049;28;1264;-64
2020/12/12 03:47:04;;;;;;;;;;;21.00;56.10;;;;;;5061844;28;1126;-64
2020/12/12 03:49:30;;;;;;;;;;;21.00;56.10;;;;;;5065174;28;1315;-64
2020/12/12 03:51:55;;;;;;;;;;;21.00;56.10;;;;;;5060323;28;1273;-64
2020/12/12 03:54:21;;;;;;;;;;;21.00;56.20;;;;;;5064854;28;1910;-64
2020/12/12 03:56:46;;;;;;;;;;;21.00;56.20;;;;;;5064080;28;1251;-64
2020/12/12 03:59:12;;;;;;;;;;;21.00;56.20;;;;;;5067102;28;1279;-65
2020/12/12 04:01:37;;;;;;;;;;;21.00;56.20;;;;;;5063860;28;1318;-64
2020/12/12 04:04:04;;;;;;;;;;;21.00;56.20;;;;;;5062216;28;2522;-65
2020/12/12 04:06:31;;;;;;;;;;;21.00;56.20;;;;;;5064896;28;1244;-65
2020/12/12 04:08:56;;;;;;;;;;;21.00;56.20;;;;;;5063388;28;1287;-64
2020/12/12 04:11:22;;;;;;;;;;;21.00;56.20;;;;;;5045985;28;1279;-65
2020/12/12 04:13:47;;;;;;;;;;;21.00;56.20;;;;;;5048566;28;1207;-65
2020/12/12 04:16:13;;;;;;;;;;;21.00;56.20;;;;;;5029780;28;1910;-64
2020/12/12 04:18:38;;;;;;;;;;;21.00;56.10;;;;;;5049875;28;1353;-65
2020/12/12 04:21:05;;;;;;;;;;;21.10;56.00;;;;;;5073766;28;1345;-65
2020/12/12 04:23:31;;;;;;;;;;;21.20;55.90;;;;;;5073227;28;1937;-65
2020/12/12 04:25:56;;;;;;;;;;;21.20;55.70;;;;;;5073400;28;1367;-65
2020/12/12 04:28:22;;;;;;;;;;;21.30;55.50;;;;;;5073526;28;1335;-65
2020/12/12 04:30:47;;;;;;;;;;;21.40;55.40;;;;;;5073197;28;1351;-66
2020/12/12 04:33:13;;;;;;;;;;;21.50;55.20;;;;;;5040947;28;1374;-64
2020/12/12 04:35:38;;;;;;;;;;;21.60;55.00;;;;;;5062608;28;1972;-65
2020/12/12 04:38:04;;;;;;;;;;;21.70;54.90;;;;;;5072439;28;1285;-64
2020/12/12 04:40:29;;;;;;;;;;;21.70;54.60;;;;;;5073594;28;1308;-64
2020/12/12 04:42:55;;;;;;;;;;;21.80;54.50;;;;;;5073542;28;1310;-64
2020/12/12 04:45:21;;;;;;;;;;;21.90;54.30;;;;;;5055299;28;1294;-64
2020/12/12 04:47:48;;;;;;;;;;;21.90;54.20;;;;;;5055242;28;1284;-64
2020/12/12 04:50:13;;;;;;;;;;;22.00;54.10;;;;;;5039034;28;1374;-64
2020/12/12 04:52:39;;;;;;;;;;;22.10;54.00;;;;;;5055319;28;1350;-64
2020/12/12 04:55:06;;;;;;;;;;;22.10;53.90;;;;;;5055016;28;1977;-64
2020/12/12 04:57:35;;;;;;;;;;;22.20;53.80;;;;;;5072768;28;1364;-65
2020/12/12 05:00:00;;;;;;;;;;;22.10;53.70;;;;;;5073151;28;1267;-64
2020/12/12 05:02:26;;;;;;;;;;;22.20;53.60;;;;;;5072438;28;1283;-64
2020/12/12 05:04:51;;;;;;;;;;;22.20;53.50;;;;;;5072629;28;1359;-63
2020/12/12 05:07:17;;;;;;;;;;;22.20;53.50;;;;;;5072933;28;1293;-65
2020/12/12 05:09:44;;;;;;;;;;;22.30;53.50;;;;;;5072763;28;1342;-64
2020/12/12 05:12:09;;;;;;;;;;;22.30;53.40;;;;;;5072536;28;1351;-64
2020/12/12 05:14:35;;;;;;;;;;;22.30;53.40;;;;;;5064669;28;1902;-64
2020/12/12 05:17:00;;;;;;;;;;;22.30;53.30;;;;;;5054742;28;1318;-64
2020/12/12 05:19:25;;;;;;;;;;;22.30;53.30;;;;;;5054673;28;1350;-64
2020/12/12 05:21:52;;;;;;;;;;;22.40;53.30;;;;;;5054881;28;1307;-64
2020/12/12 05:24:18;;;;;;;;;;;22.40;53.20;;;;;;5054601;28;1320;-64
2020/12/12 05:26:44;;;;;;;;;;;22.40;53.20;;;;;;5054643;28;1404;-64
2020/12/12 05:29:12;;;;;;;;;;;22.40;53.20;;;;;;5054733;28;1256;-65
2020/12/12 05:31:38;;;;;;;;;;;22.50;53.20;;;;;;5054803;28;1221;-64
2020/12/12 05:34:10;;;;;;;;;;;22.50;53.10;;;;;;5028947;28;1350;-64
2020/12/12 05:36:36;;;;;;;;;;;22.50;53.10;;;;;;5051704;28;1906;-65
2020/12/12 05:39:02;;;;;;;;;;;22.50;53.10;;;;;;5073330;28;1363;-62
2020/12/12 05:41:28;;;;;;;;;;;22.50;53.10;;;;;;5054071;28;1419;-61
2020/12/12 05:43:54;;;;;;;;;;;22.50;53.10;;;;;;5071618;28;1076;-62
2020/12/12 05:46:20;;;;;;;;;;;22.50;53.00;;;;;;5072040;28;1313;-63
2020/12/12 05:48:46;;;;;;;;;;;22.50;53.10;;;;;;5072053;28;1350;-61
2020/12/12 05:51:11;;;;;;;;;;;22.50;53.10;;;;;;5072224;28;1234;-61
2020/12/12 05:53:38;;;;;;;;;;;22.50;53.10;;;;;;5052895;28;1302;-61
2020/12/12 05:56:03;;;;;;;;;;;22.50;53.10;;;;;;5054023;28;1905;-61
2020/12/12 05:58:29;;;;;;;;;;;22.50;53.10;;;;;;5054714;28;1507;-61
2020/12/12 06:00:54;;;;;;;;;;;22.50;53.10;;;;;;5053785;28;1298;-62
2020/12/12 06:03:21;;;;;;;;;;;22.50;53.20;;;;;;5062445;28;1123;-59
2020/12/12 06:05:48;;;;;;;;;;;22.50;53.20;;;;;;5050329;28;1367;-60
2020/12/12 06:08:13;;;;;;;;;;;22.50;53.20;;;;;;5072086;28;1284;-61
2020/12/12 06:10:39;;;;;;;;;;;22.40;53.20;;;;;;5053964;28;1583;-61
2020/12/12 06:13:05;;;;;;;;;;;22.40;53.30;;;;;;5049308;28;1285;-61
2020/12/12 06:15:37;;;;;;;;;;;22.40;53.30;;;;;;5053881;28;1910;-59
2020/12/12 06:18:09;;;;;;;;;;;22.40;53.40;;;;;;5057734;28;1072;-59
2020/12/12 06:20:34;;;;;;;;;;;22.40;53.40;;;;;;5075922;28;1346;-61
2020/12/12 06:23:00;;;;;;;;;;;22.40;53.50;;;;;;5057937;28;1329;-60
2020/12/12 06:25:26;;;;;;;;;;;22.30;53.50;;;;;;5075431;28;1351;-61
2020/12/12 06:27:53;;;;;;;;;;;22.30;54.10;;;;;;5057690;28;1424;-62
2020/12/12 06:30:19;;;;;;;;;;;22.30;53.60;;;;;;5058077;28;1280;-62
2020/12/12 06:32:44;;;;;;;;;;;22.30;53.70;;;;;;5075418;28;1343;-63
2020/12/12 06:35:13;;;;;;;;;;;22.30;53.70;;;;;;5062792;28;1969;-62
2020/12/12 06:37:38;;;;;;;;;;;22.30;53.70;;;;;;5075028;28;1350;-62
2020/12/12 06:40:07;;;;;;;;;;;22.30;53.70;;;;;;5057274;28;1374;-63
2020/12/12 06:42:33;;;;;;;;;;;22.20;53.70;;;;;;5044683;28;1266;-62
2020/12/12 06:44:59;;;;;;;;;;;22.20;53.80;;;;;;5074412;28;1301;-62
2020/12/12 06:47:41;;;;;;;;;;;22.20;53.80;;;;;;5040571;28;1333;-63
2020/12/12 06:50:07;;;;;;;;;;;22.20;53.90;;;;;;5057580;28;1388;-62
2020/12/12 06:52:33;;;;;;;;;;;22.20;54.00;;;;;;5075040;28;1431;-62
2020/12/12 06:55:05;;;;;;;;;;;22.20;54.00;;;;;;5075219;28;1910;-63
2020/12/12 06:57:34;;;;;;;;;;;22.10;54.00;;;;;;5074828;28;1376;-62
2020/12/12 07:00:00;;;;;;;;;;;22.10;54.10;;;;;;5057878;28;1333;-63
2020/12/12 07:02:26;;;;;;;;;;;22.10;54.10;;;;;;5075001;28;1318;-60
2020/12/12 07:04:51;;;;;;;;;;;22.10;54.10;;;;;;5074994;28;1361;-62
2020/12/12 07:07:16;;;;;;;;;;;22.10;54.20;;;;;;5074949;28;1318;-62
2020/12/12 07:09:42;;;;;;;;;;;22.00;54.20;;;;;;5074909;28;1315;-62
2020/12/12 07:12:08;;;;;;;;;;;22.00;54.20;;;;;;5074655;28;1309;-59
2020/12/12 07:14:35;;;;;;;;;;;22.00;54.30;;;;;;5049449;28;1906;-62
2020/12/12 07:17:01;;;;;;;;;;;22.00;54.30;;;;;;5074477;28;1354;-62
2020/12/12 07:19:46;;;;;;;;;;;22.00;54.40;;;;;;5057146;28;1385;-60
2020/12/12 07:22:12;;;;;;;;;;;21.90;54.30;;;;;;5073999;28;1343;-61
2020/12/12 07:24:41;;;;;;;;;;;21.90;54.40;;;;;;5073601;28;1311;-62
2020/12/12 07:27:07;;;;;;;;;;;21.90;54.40;;;;;;5074018;28;1274;-63
2020/12/12 07:29:33;;;;;;;;;;;21.90;54.40;;;;;;5074833;28;1205;-61
2020/12/12 07:31:59;;;;;;;;;;;21.90;54.40;;;;;;5074163;28;1341;-60
2020/12/12 07:34:24;;;;;;;;;;;21.90;54.50;;;;;;5044549;28;1119;-61
2020/12/12 07:36:56;;;;;;;;;;;21.90;54.50;;;;;;5073924;28;1902;-61
2020/12/12 07:39:25;;;;;;;;;;;21.80;54.50;;;;;;5074266;28;1370;-61
2020/12/12 07:41:50;;;;;;;;;;;21.80;54.50;;;;;;5056726;28;1247;-61
2020/12/12 07:44:16;;;;;;;;;;;21.80;54.60;;;;;;5056107;28;1377;-62
2020/12/12 07:47:14;;;;;;;;;;;21.80;54.60;;;;;;5074069;28;1334;-63
2020/12/12 07:49:39;;;;;;;;;;;21.80;54.70;;;;;;5018602;28;1375;-62
2020/12/12 07:52:06;;;;;;;;;;;21.80;54.70;;;;;;5056270;28;1366;-60
2020/12/12 07:54:32;;;;;;;;;;;21.80;54.80;;;;;;5055688;28;1914;-61
2020/12/12 07:56:57;;;;;;;;;;;21.70;54.70;;;;;;5056387;28;981;-64
2020/12/12 07:59:23;;;;;;;;;;;21.70;54.80;;;;;;5073914;28;1271;-60
2020/12/12 08:01:49;;;;;;;;;;;21.70;54.80;;;;;;5073510;28;1299;-61
2020/12/12 08:04:18;;;;;;;;;;;21.70;54.90;;;;;;5073374;28;1295;-63
2020/12/12 08:06:43;;;;;;;;;;;21.70;54.90;;;;;;5073865;28;1265;-62
2020/12/12 08:09:09;;;;;;;;;;;21.70;54.90;;;;;;5073960;28;1327;-62
2020/12/12 08:11:34;;;;;;;;;;;21.70;55.00;;;;;;5073609;28;1286;-62
2020/12/12 08:14:01;;;;;;;;;;;21.70;55.00;;;;;;5055698;28;1101;-62
2020/12/12 08:16:35;;;;;;;;;;;21.70;55.50;;;;;;5055499;28;1894;-62
2020/12/12 08:19:04;;;;;;;;;;;21.70;54.90;;;;;;5055599;28;1378;-62
2020/12/12 08:21:29;;;;;;;;;;;21.80;54.80;;;;;;5073534;28;1326;-61
2020/12/12 08:23:55;;;;;;;;;;;21.90;54.80;;;;;;5073067;28;1383;-61
2020/12/12 08:26:21;;;;;;;;;;;21.90;54.70;;;;;;5055524;28;1316;-61
2020/12/12 08:28:46;;;;;;;;;;;21.90;54.50;;;;;;5073618;28;1404;-62
2020/12/12 08:31:13;;;;;;;;;;;22.00;54.50;;;;;;5054999;28;1381;-62
2020/12/12 08:33:39;;;;;;;;;;;22.00;54.30;;;;;;5036580;28;1092;-62
2020/12/12 08:36:17;;;;;;;;;;;22.10;54.20;;;;;;5048611;28;1894;-62
2020/12/12 08:38:42;;;;;;;;;;;22.10;54.10;;;;;;5073671;28;1362;-63
2020/12/12 08:41:12;;;;;;;;;;;22.10;54.00;;;;;;5055348;28;1053;-62
2020/12/12 08:43:37;;;;;;;;;;;22.20;54.00;;;;;;5072722;28;1311;-63
2020/12/12 08:46:03;;;;;;;;;;;22.20;53.90;;;;;;5072341;28;1297;-62
2020/12/12 08:48:32;;;;;;;;;;;22.20;53.80;;;;;;5073169;28;871;-63
2020/12/12 08:50:58;;;;;;;;;;;22.30;53.80;;;;;;5073313;28;1330;-62
2020/12/12 08:53:24;;;;;;;;;;;22.30;53.70;;;;;;5055147;28;1276;-62
2020/12/12 08:56:03;;;;;;;;;;;22.30;53.70;;;;;;5072388;28;1973;-62
2020/12/12 08:58:45;;;;;;;;;;;22.30;53.70;;;;;;5072918;28;1293;-62
2020/12/12 09:01:15;;;;;;;;;;;22.30;53.70;;;;;;5072640;28;1299;-62
2020/12/12 09:03:50;;;;;;;;;;;22.30;53.70;;;;;;5040765;28;1367;-62
2020/12/12 09:06:16;;;;;;;;;;;22.30;53.70;;;;;;5054893;28;1369;-62
2020/12/12 09:08:41;;;;;;;;;;;22.30;53.70;;;;;;5072597;28;1276;-62
2020/12/12 09:11:12;;;;;;;;;;;22.30;53.70;;;;;;5072676;28;1350;-64
2020/12/12 09:13:38;;;;;;;;;;;22.20;53.70;;;;;;5047353;28;1314;-63
2020/12/12 09:16:04;;;;;;;;;;;22.20;53.70;;;;;;5054479;28;1957;-62
2020/12/12 09:18:29;;;;;;;;;;;22.20;53.80;;;;;;5054805;28;1451;-63
2020/12/12 09:20:55;;;;;;;;;;;22.20;53.80;;;;;;5072694;28;1332;-64
2020/12/12 09:23:20;;;;;;;;;;;22.20;54.40;;;;;;5072068;28;1260;-63
2020/12/12 09:25:46;;;;;;;;;;;22.20;53.80;;;;;;5072861;28;1379;-63
2020/12/12 09:28:11;;;;;;;;;;;22.10;53.80;;;;;;5071938;28;1314;-64
2020/12/12 09:30:37;;;;;;;;;;;22.20;54.00;;;;;;5072543;28;1292;-62
2020/12/12 09:33:02;;;;;;;;;;;22.10;53.90;;;;;;5071875;28;1296;-62
2020/12/12 09:35:28;;;;;;;;;;;22.10;54.00;;;;;;5060079;28;1902;-63
2020/12/12 09:37:53;;;;;;;;;;;22.10;54.00;;;;;;5072067;28;1347;-62
2020/12/12 09:40:19;;;;;;;;;;;22.10;54.00;;;;;;5054432;28;1331;-62
2020/12/12 09:42:44;;;;;;;;;;;22.10;54.10;;;;;;5054922;28;1308;-60
2020/12/12 09:45:10;;;;;;;;;;;22.10;54.10;;;;;;5071731;28;1365;-63
2020/12/12 09:47:35;;;;;;;;;;;22.10;54.10;;;;;;5072095;28;1316;-62
2020/12/12 09:50:01;;;;;;;;;;;22.10;54.10;;;;;;5071645;28;1314;-64
2020/12/12 09:52:26;;;;;;;;;;;22.10;54.10;;;;;;5071946;28;1345;-64
2020/12/12 09:54:52;;;;;;;;;;;22.10;54.10;;;;;;5071748;28;1980;-63
2020/12/12 09:57:17;;;;;;;;;;;22.10;54.10;;;;;;5071804;28;1343;-63
2020/12/12 09:59:42;;;;;;;;;;;22.10;54.10;;;;;;5072049;28;1298;-62
2020/12/12 10:02:08;;;;;;;;;;;22.10;54.10;;;;;;5065356;28;1806;-64
2020/12/12 10:04:33;;;;;;;;;;;22.10;54.00;;;;;;5052493;28;1045;-62
2020/12/12 10:06:59;;;;;;;;;;;22.20;54.00;;;;;;5050249;28;1271;-62
2020/12/12 10:09:24;;;;;;;;;;;22.20;54.00;;;;;;5060534;28;1276;-64
2020/12/12 10:11:50;;;;;;;;;;;22.20;54.00;;;;;;5066965;28;1281;-62
2020/12/12 10:14:15;;;;;;;;;;;22.20;53.90;;;;;;5070980;28;1183;-62
2020/12/12 10:16:41;;;;;;;;;;;22.20;53.90;;;;;;5071850;28;1906;-63
2020/12/12 10:19:06;;;;;;;;;;;22.20;53.80;;;;;;5053612;28;1412;-64
2020/12/12 10:21:32;;;;;;;;;;;22.20;53.80;;;;;;5054327;28;1326;-62
2020/12/12 10:23:57;;;;;;;;;;;22.20;53.80;;;;;;5061998;28;1216;-64
2020/12/12 10:26:23;;;;;;;;;;;22.20;53.80;;;;;;5060650;28;1289;-64
2020/12/12 10:28:50;;;;;;;;;;;22.30;53.80;;;;;;5061912;28;1367;-62
2020/12/12 10:31:17;;;;;;;;;;;22.30;53.80;;;;;;5062327;28;1301;-62
2020/12/12 10:33:42;;;;;;;;;;;22.30;53.80;;;;;;5063003;28;1687;-61
2020/12/12 10:36:07;;;;;;;;;;;22.30;53.70;;;;;;5042712;28;1969;-65
2020/12/12 10:38:35;;;;;;;;;;;22.30;54.30;;;;;;5045412;28;1273;-64
2020/12/12 10:41:03;;;;;;;;;;;22.30;53.70;;;;;;5061158;28;1332;-63
2020/12/12 10:43:29;;;;;;;;;;;22.30;53.70;;;;;;5065064;28;1352;-64
2020/12/12 10:45:54;;;;;;;;;;;22.30;53.70;;;;;;5063048;28;1390;-64
2020/12/12 10:48:21;;;;;;;;;;;22.30;53.70;;;;;;5049396;28;1305;-63
2020/12/12 10:50:47;;;;;;;;;;;22.30;53.70;;;;;;5060926;28;1339;-63
2020/12/12 10:53:12;;;;;;;;;;;22.30;53.70;;;;;;5046713;28;1434;-62
2020/12/12 10:55:38;;;;;;;;;;;22.30;53.70;;;;;;5044794;28;1910;-64
2020/12/12 10:58:04;;;;;;;;;;;22.30;53.70;;;;;;5046216;28;1339;-64
2020/12/12 11:00:37;;;;;;;;;;;22.30;53.70;;;;;;5062509;28;1350;-64
2020/12/12 11:03:03;;;;;;;;;;;22.30;53.70;;;;;;5049301;28;1205;-63
2020/12/12 11:05:28;;;;;;;;;;;22.30;53.70;;;;;;5066975;28;1257;-62
2020/12/12 11:07:54;;;;;;;;;;;22.30;53.80;;;;;;5069798;28;1210;-61
2020/12/12 11:10:19;;;;;;;;;;;22.30;53.80;;;;;;5047965;28;1312;-61
2020/12/12 11:12:45;;;;;;;;;;;22.20;53.80;;;;;;5064212;28;1414;-64
2020/12/12 11:15:11;;;;;;;;;;;22.20;53.80;;;;;;5049328;28;1961;-60
2020/12/12 11:17:37;;;;;;;;;;;22.20;53.90;;;;;;5046752;28;1331;-63
2020/12/12 11:20:02;;;;;;;;;;;22.20;53.90;;;;;;5062920;28;1355;-63
2020/12/12 11:22:28;;;;;;;;;;;22.20;53.90;;;;;;5045882;28;1382;-64
2020/12/12 11:24:53;;;;;;;;;;;22.20;53.90;;;;;;5064574;28;1304;-62
2020/12/12 11:27:19;;;;;;;;;;;22.20;53.90;;;;;;5048359;28;1312;-62
2020/12/12 11:29:44;;;;;;;;;;;22.20;53.90;;;;;;5044871;28;1337;-64
2020/12/12 11:32:10;;;;;;;;;;;22.20;53.80;;;;;;5049885;28;1403;-62
2020/12/12 11:34:48;;;;;;;;;;;22.30;53.80;;;;;;5064087;28;1363;-64
2020/12/12 11:39:52;;;;;;;;;;;22.30;53.70;;;;;;5075046;28;1272;-65
2020/12/12 11:43:12;;;;;;;;;;;22.30;53.70;;;;;;5067966;28;1885;-64
2020/12/12 11:47:33;;;;;;;;;;;22.40;53.60;;;;;;5052580;28;925;-64
2020/12/12 11:49:58;;;;;;;;;;;22.40;53.50;;;;;;5054536;28;1264;-65
2020/12/12 11:52:23;;;;;;;;;;;22.40;53.50;;;;;;5055093;28;1360;-63
2020/12/12 11:54:49;;;;;;;;;;;22.40;53.50;;;;;;5045178;28;1973;-65
2020/12/12 11:57:15;;;;;;;;;;;22.40;53.40;;;;;;5073151;28;1318;-64
2020/12/12 11:59:42;;;;;;;;;;;22.40;53.40;;;;;;5054472;28;1400;-65
2020/12/12 12:02:07;;;;;;;;;;;22.50;53.40;;;;;;5073095;28;1438;-65
2020/12/12 12:04:32;;;;;;;;;;;22.50;53.40;;;;;;5072329;28;1405;-62
2020/12/12 12:06:59;;;;;;;;;;;22.50;53.30;;;;;;5072601;28;1275;-65
2020/12/12 12:09:35;;;;;;;;;;;22.50;53.30;;;;;;5054876;28;1477;-64
2020/12/12 12:12:00;;;;;;;;;;;22.50;53.30;;;;;;5054081;28;1373;-64
2020/12/12 12:14:26;;;;;;;;;;;22.50;53.90;;;;;;5063530;28;1134;-65
2020/12/12 12:16:51;;;;;;;;;;;22.50;53.30;;;;;;5054434;28;2245;-64
2020/12/12 12:19:17;;;;;;;;;;;22.50;53.30;;;;;;5049262;28;1271;-64
2020/12/12 12:21:42;;;;;;;;;;;22.50;53.30;;;;;;5047622;28;2770;-64
2020/12/12 12:24:09;;;;;;;;;;;22.50;53.40;;;;;;5051583;28;1081;-65
2020/12/12 12:26:35;;;;;;;;;;;22.50;53.40;;;;;;5071652;28;1312;-65
2020/12/12 12:29:11;;;;;;;;;;;22.40;53.40;;;;;;5045041;28;1701;-66
2020/12/12 12:31:36;;;;;;;;;;;22.50;53.50;;;;;;5068417;28;1320;-64
2020/12/12 12:34:02;;;;;;;;;;;22.40;53.40;;;;;;5071575;28;1338;-66
2020/12/12 12:36:28;;;;;;;;;;;22.40;53.50;;;;;;5053666;28;1909;-64
2020/12/12 12:38:53;;;;;;;;;;;22.40;53.50;;;;;;5053546;28;1337;-66
2020/12/12 12:41:19;;;;;;;;;;;22.40;53.50;;;;;;5054822;28;1327;-65
2020/12/12 12:43:44;;;;;;;;;;;22.40;53.60;;;;;;5054943;28;1271;-64
2020/12/12 12:46:10;;;;;;;;;;;22.40;54.30;;;;;;5072225;28;1275;-65
2020/12/12 12:48:36;;;;;;;;;;;22.30;53.60;;;;;;5068622;28;1330;-66
2020/12/12 12:51:01;;;;;;;;;;;22.30;53.70;;;;;;5046880;28;1368;-66
2020/12/12 12:53:27;;;;;;;;;;;22.30;53.70;;;;;;5065310;28;1352;-67
2020/12/12 12:55:52;;;;;;;;;;;22.30;53.70;;;;;;5065143;28;1925;-64
2020/12/12 12:58:18;;;;;;;;;;;22.30;53.80;;;;;;5063322;28;1348;-65
2020/12/12 13:00:43;;;;;;;;;;;22.20;53.70;;;;;;5062909;28;1279;-65
2020/12/12 13:03:08;;;;;;;;;;;22.30;53.80;;;;;;5062722;28;1324;-65
2020/12/12 13:05:34;;;;;;;;;;;22.20;53.80;;;;;;5061824;28;1468;-64
2020/12/12 13:08:00;;;;;;;;;;;22.20;53.90;;;;;;5054240;28;1331;-67
2020/12/12 13:10:25;;;;;;;;;;;22.20;53.90;;;;;;5052057;28;2469;-66
2020/12/12 13:12:51;;;;;;;;;;;22.20;54.00;;;;;;5065582;28;1255;-66
2020/12/12 13:15:16;;;;;;;;;;;22.20;54.00;;;;;;5071483;28;1964;-64
2020/12/12 13:17:42;;;;;;;;;;;22.20;54.00;;;;;;5072142;28;1358;-65
2020/12/12 13:20:18;;;;;;;;;;;22.20;54.10;;;;;;5072628;28;1212;-66
2020/12/12 13:22:43;;;;;;;;;;;22.10;54.10;;;;;;5041473;28;1229;-66
2020/12/12 13:25:09;;;;;;;;;;;22.10;54.10;;;;;;5064796;28;1264;-65
2020/12/12 13:27:34;;;;;;;;;;;22.10;54.70;;;;;;5066588;28;1372;-66
2020/12/12 13:32:25;;;;;;;;;;;22.10;54.30;;;;;;5062551;28;1296;-66
2020/12/12 13:34:51;;;;;;;;;;;22.10;54.30;;;;;;5062558;28;1963;-65
2020/12/12 13:37:16;;;;;;;;;;;22.00;54.30;;;;;;5043969;28;1304;-67
2020/12/12 13:39:43;;;;;;;;;;;22.00;54.30;;;;;;5061434;28;1375;-66
2020/12/12 13:42:12;;;;;;;;;;;22.00;54.40;;;;;;5044129;28;1382;-66
2020/12/12 13:44:39;;;;;;;;;;;22.00;54.40;;;;;;5045365;28;1359;-66
2020/12/12 13:47:04;;;;;;;;;;;21.90;54.40;;;;;;5053899;28;1195;-66
2020/12/12 13:49:30;;;;;;;;;;;21.90;54.50;;;;;;5050550;28;1336;-66
2020/12/12 13:51:55;;;;;;;;;;;21.90;54.50;;;;;;5071881;28;1021;-65
2020/12/12 13:54:20;;;;;;;;;;;21.90;54.50;;;;;;5071928;28;1125;-66
2020/12/12 13:56:46;;;;;;;;;;;21.90;54.60;;;;;;5054033;28;1910;-66
2020/12/12 13:59:11;;;;;;;;;;;21.90;54.60;;;;;;5054305;28;1437;-66
2020/12/12 14:01:37;;;;;;;;;;;21.80;54.60;;;;;;5072554;28;1296;-65
2020/12/12 14:04:03;;;;;;;;;;;21.80;54.60;;;;;;5050044;28;1143;-65
2020/12/12 14:06:29;;;;;;;;;;;21.80;54.70;;;;;;5050494;28;1716;-65
2020/12/12 14:22:36;;;;;;;;;;;21.70;54.90;;;;;;5071595;28;1367;-66
2020/12/12 14:25:06;;;;;;;;;;;21.70;54.90;;;;;;5048905;28;1203;-66
2020/12/12 14:30:16;;;;;;;;;;;21.70;54.90;;;;;;5070591;28;1287;-65
2020/12/12 14:32:41;;;;;;;;;;;21.70;55.00;;;;;;5071184;28;1543;-66
2020/12/12 14:35:07;;;;;;;;;;;21.70;55.00;;;;;;5059914;28;2080;-66
2020/12/12 14:37:33;;;;;;;;;;;21.70;55.00;;;;;;5056581;28;1092;-65
2020/12/12 14:39:58;;;;;;;;;;;21.70;55.00;;;;;;5056045;28;1354;-65
2020/12/12 14:42:24;;;;;;;;;;;21.70;55.00;;;;;;5074826;28;1068;-63
2020/12/12 14:44:49;;;;;;;;;;;21.60;55.00;;;;;;5039438;28;1314;-66
2020/12/12 14:47:15;;;;;;;;;;;21.60;55.10;;;;;;5056349;28;1135;-65
2020/12/12 14:49:40;;;;;;;;;;;21.60;55.10;;;;;;5074206;28;1229;-65